sensor_id;sensor_type;location;lat;lon;timestamp;P1;durP1;ratioP1;P2;durP2;ratioP2
65469;SDS011;52067;50.710;14.492;2024-01-07T00:01:12;16.95;;;7.53;;
65469;SDS011;52067;50.710;14.492;2024-01-07T00:03:37;16.67;;;8.00;;
65469;SDS011;52067;50.710;14.492;2024-01-07T00:06:05;14.90;;;6.68;;
65469;SDS011;52067;50.710;14.492;2024-01-07T00:08:30;13.95;;;6.38;;
65469;SDS011;52067;50.710;14.492;2024-01-07T00:10:56;14.00;;;5.68;;
65469;SDS011;52067;50.710;14.492;2024-01-07T00:13:21;14.52;;;7.18;;
65469;SDS011;52067;50.710;14.492;2024-01-07T00:15:47;10.65;;;4.90;;
65469;SDS011;52067;50.710;14.492;2024-01-07T00:18:12;21.02;;;9.82;;
65469;SDS011;52067;50.710;14.492;2024-01-07T00:20:37;11.70;;;5.57;;
65469;SDS011;52067;50.710;14.492;2024-01-07T00:23:03;14.48;;;6.78;;
65469;SDS011;52067;50.710;14.492;2024-01-07T00:25:28;17.25;;;7.63;;
65469;SDS011;52067;50.710;14.492;2024-01-07T00:27:54;18.50;;;7.43;;
65469;SDS011;52067;50.710;14.492;2024-01-07T00:30:20;9.70;;;4.43;;
65469;SDS011;52067;50.710;14.492;2024-01-07T00:32:46;18.52;;;9.18;;
65469;SDS011;52067;50.710;14.492;2024-01-07T00:35:11;16.83;;;7.70;;
65469;SDS011;52067;50.710;14.492;2024-01-07T00:37:37;22.50;;;9.73;;
65469;SDS011;52067;50.710;14.492;2024-01-07T00:40:03;22.40;;;9.27;;
65469;SDS011;52067;50.710;14.492;2024-01-07T00:42:29;22.00;;;9.13;;
65469;SDS011;52067;50.710;14.492;2024-01-07T00:44:55;21.45;;;9.60;;
65469;SDS011;52067;50.710;14.492;2024-01-07T00:47:20;19.55;;;8.48;;
65469;SDS011;52067;50.710;14.492;2024-01-07T00:49:45;17.77;;;8.32;;
65469;SDS011;52067;50.710;14.492;2024-01-07T00:52:11;17.95;;;8.57;;
65469;SDS011;52067;50.710;14.492;2024-01-07T00:54:36;21.88;;;8.68;;
65469;SDS011;52067;50.710;14.492;2024-01-07T00:57:02;19.05;;;9.38;;
65469;SDS011;52067;50.710;14.492;2024-01-07T00:59:28;18.27;;;6.80;;
65469;SDS011;52067;50.710;14.492;2024-01-07T01:01:54;14.82;;;7.13;;
65469;SDS011;52067;50.710;14.492;2024-01-07T01:04:20;10.75;;;4.60;;
65469;SDS011;52067;50.710;14.492;2024-01-07T01:06:46;18.30;;;8.45;;
65469;SDS011;52067;50.710;14.492;2024-01-07T01:09:11;17.70;;;8.18;;
65469;SDS011;52067;50.710;14.492;2024-01-07T01:11:37;11.73;;;5.82;;
65469;SDS011;52067;50.710;14.492;2024-01-07T01:14:02;16.50;;;7.00;;
65469;SDS011;52067;50.710;14.492;2024-01-07T01:16:28;16.27;;;7.32;;
65469;SDS011;52067;50.710;14.492;2024-01-07T01:18:53;20.35;;;9.55;;
65469;SDS011;52067;50.710;14.492;2024-01-07T01:21:18;21.25;;;9.60;;
65469;SDS011;52067;50.710;14.492;2024-01-07T01:23:44;19.58;;;8.13;;
65469;SDS011;52067;50.710;14.492;2024-01-07T01:26:09;16.30;;;7.85;;
65469;SDS011;52067;50.710;14.492;2024-01-07T01:28:34;18.38;;;8.95;;
65469;SDS011;52067;50.710;14.492;2024-01-07T01:31:00;19.88;;;8.98;;
65469;SDS011;52067;50.710;14.492;2024-01-07T01:33:25;17.80;;;7.97;;
65469;SDS011;52067;50.710;14.492;2024-01-07T01:35:51;12.40;;;5.57;;
65469;SDS011;52067;50.710;14.492;2024-01-07T01:38:16;14.90;;;7.03;;
65469;SDS011;52067;50.710;14.492;2024-01-07T01:40:42;17.27;;;7.25;;
65469;SDS011;52067;50.710;14.492;2024-01-07T01:43:07;16.63;;;6.80;;
65469;SDS011;52067;50.710;14.492;2024-01-07T01:45:32;14.60;;;6.55;;
65469;SDS011;52067;50.710;14.492;2024-01-07T01:47:58;17.02;;;7.13;;
65469;SDS011;52067;50.710;14.492;2024-01-07T01:50:24;10.18;;;4.75;;
65469;SDS011;52067;50.710;14.492;2024-01-07T01:52:50;12.48;;;6.25;;
65469;SDS011;52067;50.710;14.492;2024-01-07T01:55:17;12.55;;;4.93;;
65469;SDS011;52067;50.710;14.492;2024-01-07T01:57:43;13.18;;;5.97;;
65469;SDS011;52067;50.710;14.492;2024-01-07T02:00:12;19.92;;;9.32;;
65469;SDS011;52067;50.710;14.492;2024-01-07T02:02:38;12.57;;;5.55;;
65469;SDS011;52067;50.710;14.492;2024-01-07T02:05:03;18.52;;;9.50;;
65469;SDS011;52067;50.710;14.492;2024-01-07T02:07:32;14.23;;;5.93;;
65469;SDS011;52067;50.710;14.492;2024-01-07T02:09:59;22.77;;;8.82;;
65469;SDS011;52067;50.710;14.492;2024-01-07T02:12:24;11.85;;;6.18;;
65469;SDS011;52067;50.710;14.492;2024-01-07T02:14:50;21.55;;;9.05;;
65469;SDS011;52067;50.710;14.492;2024-01-07T02:17:15;18.17;;;7.88;;
65469;SDS011;52067;50.710;14.492;2024-01-07T02:19:42;19.42;;;9.20;;
65469;SDS011;52067;50.710;14.492;2024-01-07T02:22:07;16.45;;;6.72;;
65469;SDS011;52067;50.710;14.492;2024-01-07T02:24:32;22.95;;;8.23;;
65469;SDS011;52067;50.710;14.492;2024-01-07T02:26:58;15.98;;;7.20;;
65469;SDS011;52067;50.710;14.492;2024-01-07T02:29:27;12.63;;;6.65;;
65469;SDS011;52067;50.710;14.492;2024-01-07T02:31:53;9.23;;;4.13;;
65469;SDS011;52067;50.710;14.492;2024-01-07T02:34:18;6.63;;;4.13;;
65469;SDS011;52067;50.710;14.492;2024-01-07T02:36:44;21.02;;;9.57;;
65469;SDS011;52067;50.710;14.492;2024-01-07T02:39:09;17.95;;;7.25;;
65469;SDS011;52067;50.710;14.492;2024-01-07T02:41:34;20.63;;;9.98;;
65469;SDS011;52067;50.710;14.492;2024-01-07T02:44:00;16.70;;;7.38;;
65469;SDS011;52067;50.710;14.492;2024-01-07T02:46:25;21.45;;;9.02;;
65469;SDS011;52067;50.710;14.492;2024-01-07T02:48:50;11.13;;;5.78;;
65469;SDS011;52067;50.710;14.492;2024-01-07T02:51:16;12.15;;;5.93;;
65469;SDS011;52067;50.710;14.492;2024-01-07T02:53:41;10.80;;;4.88;;
65469;SDS011;52067;50.710;14.492;2024-01-07T02:56:07;13.52;;;6.20;;
65469;SDS011;52067;50.710;14.492;2024-01-07T02:58:33;13.20;;;6.25;;
65469;SDS011;52067;50.710;14.492;2024-01-07T03:00:59;13.13;;;6.28;;
65469;SDS011;52067;50.710;14.492;2024-01-07T03:03:25;13.07;;;6.22;;
65469;SDS011;52067;50.710;14.492;2024-01-07T03:05:50;18.65;;;9.10;;
65469;SDS011;52067;50.710;14.492;2024-01-07T03:08:16;11.85;;;5.68;;
65469;SDS011;52067;50.710;14.492;2024-01-07T03:10:41;13.07;;;7.30;;
65469;SDS011;52067;50.710;14.492;2024-01-07T03:13:07;18.83;;;8.60;;
65469;SDS011;52067;50.710;14.492;2024-01-07T03:15:32;19.17;;;8.93;;
65469;SDS011;52067;50.710;14.492;2024-01-07T03:17:57;16.33;;;6.57;;
65469;SDS011;52067;50.710;14.492;2024-01-07T03:20:23;20.05;;;9.60;;
65469;SDS011;52067;50.710;14.492;2024-01-07T03:22:48;15.98;;;7.75;;
65469;SDS011;52067;50.710;14.492;2024-01-07T03:25:14;6.50;;;3.95;;
65469;SDS011;52067;50.710;14.492;2024-01-07T03:27:39;13.35;;;6.40;;
65469;SDS011;52067;50.710;14.492;2024-01-07T03:30:05;9.35;;;4.38;;
65469;SDS011;52067;50.710;14.492;2024-01-07T03:32:31;16.30;;;7.90;;
65469;SDS011;52067;50.710;14.492;2024-01-07T03:34:56;18.40;;;8.90;;
65469;SDS011;52067;50.710;14.492;2024-01-07T03:37:21;10.18;;;4.80;;
65469;SDS011;52067;50.710;14.492;2024-01-07T03:39:47;20.60;;;8.15;;
65469;SDS011;52067;50.710;14.492;2024-01-07T03:42:12;17.48;;;8.13;;
65469;SDS011;52067;50.710;14.492;2024-01-07T03:44:38;16.10;;;7.85;;
65469;SDS011;52067;50.710;14.492;2024-01-07T03:47:04;16.10;;;7.45;;
65469;SDS011;52067;50.710;14.492;2024-01-07T03:49:30;13.68;;;5.97;;
65469;SDS011;52067;50.710;14.492;2024-01-07T03:51:56;10.65;;;6.10;;
65469;SDS011;52067;50.710;14.492;2024-01-07T03:54:21;9.43;;;5.07;;
65469;SDS011;52067;50.710;14.492;2024-01-07T03:56:47;16.02;;;7.22;;
65469;SDS011;52067;50.710;14.492;2024-01-07T03:59:12;9.30;;;5.13;;
65469;SDS011;52067;50.710;14.492;2024-01-07T04:01:37;14.18;;;6.63;;
65469;SDS011;52067;50.710;14.492;2024-01-07T04:04:03;12.82;;;5.70;;
65469;SDS011;52067;50.710;14.492;2024-01-07T04:06:28;12.18;;;6.25;;
65469;SDS011;52067;50.710;14.492;2024-01-07T04:08:54;13.68;;;6.10;;
65469;SDS011;52067;50.710;14.492;2024-01-07T04:11:19;14.77;;;6.47;;
65469;SDS011;52067;50.710;14.492;2024-01-07T04:13:45;15.95;;;8.27;;
65469;SDS011;52067;50.710;14.492;2024-01-07T04:16:19;18.13;;;7.32;;
65469;SDS011;52067;50.710;14.492;2024-01-07T04:18:48;22.30;;;8.43;;
65469;SDS011;52067;50.710;14.492;2024-01-07T04:21:14;10.45;;;5.18;;
65469;SDS011;52067;50.710;14.492;2024-01-07T04:23:39;30.13;;;6.75;;
65469;SDS011;52067;50.710;14.492;2024-01-07T04:26:06;12.95;;;5.22;;
65469;SDS011;52067;50.710;14.492;2024-01-07T04:28:32;13.13;;;6.28;;
65469;SDS011;52067;50.710;14.492;2024-01-07T04:30:57;15.55;;;6.20;;
65469;SDS011;52067;50.710;14.492;2024-01-07T04:33:23;17.88;;;8.27;;
65469;SDS011;52067;50.710;14.492;2024-01-07T04:35:48;11.50;;;5.80;;
65469;SDS011;52067;50.710;14.492;2024-01-07T04:38:14;13.43;;;5.45;;
65469;SDS011;52067;50.710;14.492;2024-01-07T04:40:39;14.05;;;7.57;;
65469;SDS011;52067;50.710;14.492;2024-01-07T04:43:04;12.52;;;6.03;;
65469;SDS011;52067;50.710;14.492;2024-01-07T04:45:30;12.63;;;6.50;;
65469;SDS011;52067;50.710;14.492;2024-01-07T04:47:55;12.25;;;5.72;;
65469;SDS011;52067;50.710;14.492;2024-01-07T04:50:21;13.43;;;6.43;;
65469;SDS011;52067;50.710;14.492;2024-01-07T04:52:46;24.05;;;6.85;;
65469;SDS011;52067;50.710;14.492;2024-01-07T04:55:12;12.15;;;4.40;;
65469;SDS011;52067;50.710;14.492;2024-01-07T04:57:37;21.05;;;8.77;;
65469;SDS011;52067;50.710;14.492;2024-01-07T05:00:03;11.73;;;5.90;;
65469;SDS011;52067;50.710;14.492;2024-01-07T05:02:29;9.40;;;5.32;;
65469;SDS011;52067;50.710;14.492;2024-01-07T05:04:54;12.38;;;6.68;;
65469;SDS011;52067;50.710;14.492;2024-01-07T05:07:20;8.60;;;5.10;;
65469;SDS011;52067;50.710;14.492;2024-01-07T05:09:45;12.13;;;5.88;;
65469;SDS011;52067;50.710;14.492;2024-01-07T05:12:11;8.32;;;4.88;;
65469;SDS011;52067;50.710;14.492;2024-01-07T05:14:36;8.82;;;4.35;;
65469;SDS011;52067;50.710;14.492;2024-01-07T05:17:02;13.05;;;5.97;;
65469;SDS011;52067;50.710;14.492;2024-01-07T05:19:28;10.40;;;5.72;;
65469;SDS011;52067;50.710;14.492;2024-01-07T05:21:53;9.35;;;5.28;;
65469;SDS011;52067;50.710;14.492;2024-01-07T05:24:19;10.45;;;5.10;;
65469;SDS011;52067;50.710;14.492;2024-01-07T05:26:44;13.27;;;6.80;;
65469;SDS011;52067;50.710;14.492;2024-01-07T05:29:10;14.00;;;5.78;;
65469;SDS011;52067;50.710;14.492;2024-01-07T05:31:37;11.38;;;5.85;;
65469;SDS011;52067;50.710;14.492;2024-01-07T05:34:03;16.73;;;8.80;;
65469;SDS011;52067;50.710;14.492;2024-01-07T05:36:28;17.00;;;5.40;;
65469;SDS011;52067;50.710;14.492;2024-01-07T05:38:54;11.32;;;4.72;;
65469;SDS011;52067;50.710;14.492;2024-01-07T05:41:19;10.10;;;5.38;;
65469;SDS011;52067;50.710;14.492;2024-01-07T05:43:44;13.80;;;6.35;;
65469;SDS011;52067;50.710;14.492;2024-01-07T05:46:10;14.50;;;8.00;;
65469;SDS011;52067;50.710;14.492;2024-01-07T05:48:47;13.38;;;6.57;;
65469;SDS011;52067;50.710;14.492;2024-01-07T05:51:13;13.93;;;6.30;;
65469;SDS011;52067;50.710;14.492;2024-01-07T05:53:40;13.18;;;7.00;;
65469;SDS011;52067;50.710;14.492;2024-01-07T05:56:06;14.07;;;5.85;;
65469;SDS011;52067;50.710;14.492;2024-01-07T05:58:32;9.60;;;4.88;;
65469;SDS011;52067;50.710;14.492;2024-01-07T06:00:57;16.15;;;6.72;;
65469;SDS011;52067;50.710;14.492;2024-01-07T06:03:23;14.85;;;7.00;;
65469;SDS011;52067;50.710;14.492;2024-01-07T06:05:48;14.00;;;6.32;;
65469;SDS011;52067;50.710;14.492;2024-01-07T06:08:14;4.97;;;3.33;;
65469;SDS011;52067;50.710;14.492;2024-01-07T06:10:39;9.88;;;5.05;;
65469;SDS011;52067;50.710;14.492;2024-01-07T06:13:05;8.77;;;4.70;;
65469;SDS011;52067;50.710;14.492;2024-01-07T06:15:31;10.63;;;5.72;;
65469;SDS011;52067;50.710;14.492;2024-01-07T06:17:56;13.90;;;6.22;;
65469;SDS011;52067;50.710;14.492;2024-01-07T06:20:22;15.48;;;4.22;;
65469;SDS011;52067;50.710;14.492;2024-01-07T06:22:48;6.68;;;3.90;;
65469;SDS011;52067;50.710;14.492;2024-01-07T06:25:13;9.65;;;4.93;;
65469;SDS011;52067;50.710;14.492;2024-01-07T06:27:39;12.00;;;5.10;;
65469;SDS011;52067;50.710;14.492;2024-01-07T06:30:05;14.70;;;6.10;;
65469;SDS011;52067;50.710;14.492;2024-01-07T06:32:31;11.90;;;6.40;;
65469;SDS011;52067;50.710;14.492;2024-01-07T06:34:57;11.00;;;5.63;;
65469;SDS011;52067;50.710;14.492;2024-01-07T06:37:23;9.25;;;5.28;;
65469;SDS011;52067;50.710;14.492;2024-01-07T06:39:48;11.60;;;6.65;;
65469;SDS011;52067;50.710;14.492;2024-01-07T06:42:14;20.17;;;7.70;;
65469;SDS011;52067;50.710;14.492;2024-01-07T06:44:39;5.72;;;3.17;;
65469;SDS011;52067;50.710;14.492;2024-01-07T06:47:04;8.50;;;5.07;;
65469;SDS011;52067;50.710;14.492;2024-01-07T06:49:30;6.72;;;4.05;;
65469;SDS011;52067;50.710;14.492;2024-01-07T06:51:55;12.48;;;5.18;;
65469;SDS011;52067;50.710;14.492;2024-01-07T06:54:21;5.18;;;3.20;;
65469;SDS011;52067;50.710;14.492;2024-01-07T06:56:46;16.98;;;6.63;;
65469;SDS011;52067;50.710;14.492;2024-01-07T06:59:12;9.95;;;5.10;;
65469;SDS011;52067;50.710;14.492;2024-01-07T07:01:37;12.13;;;6.65;;
65469;SDS011;52067;50.710;14.492;2024-01-07T07:04:03;9.45;;;5.47;;
65469;SDS011;52067;50.710;14.492;2024-01-07T07:06:29;13.35;;;6.43;;
65469;SDS011;52067;50.710;14.492;2024-01-07T07:08:54;14.07;;;5.60;;
65469;SDS011;52067;50.710;14.492;2024-01-07T07:11:20;12.95;;;3.95;;
65469;SDS011;52067;50.710;14.492;2024-01-07T07:13:45;15.75;;;6.18;;
65469;SDS011;52067;50.710;14.492;2024-01-07T07:16:11;11.30;;;5.68;;
65469;SDS011;52067;50.710;14.492;2024-01-07T07:18:37;9.30;;;4.75;;
65469;SDS011;52067;50.710;14.492;2024-01-07T07:21:02;6.90;;;3.80;;
65469;SDS011;52067;50.710;14.492;2024-01-07T07:23:28;11.80;;;5.93;;
65469;SDS011;52067;50.710;14.492;2024-01-07T07:25:53;6.55;;;3.33;;
65469;SDS011;52067;50.710;14.492;2024-01-07T07:28:19;7.80;;;4.32;;
65469;SDS011;52067;50.710;14.492;2024-01-07T07:30:44;11.38;;;6.32;;
65469;SDS011;52067;50.710;14.492;2024-01-07T07:33:10;6.57;;;4.03;;
65469;SDS011;52067;50.710;14.492;2024-01-07T07:35:35;3.22;;;2.13;;
65469;SDS011;52067;50.710;14.492;2024-01-07T07:38:00;10.07;;;3.30;;
65469;SDS011;52067;50.710;14.492;2024-01-07T07:40:26;12.65;;;6.80;;
65469;SDS011;52067;50.710;14.492;2024-01-07T07:42:51;12.05;;;5.80;;
65469;SDS011;52067;50.710;14.492;2024-01-07T07:45:17;7.40;;;3.97;;
65469;SDS011;52067;50.710;14.492;2024-01-07T07:47:44;8.85;;;4.65;;
65469;SDS011;52067;50.710;14.492;2024-01-07T07:50:10;7.00;;;4.40;;
65469;SDS011;52067;50.710;14.492;2024-01-07T07:52:35;7.78;;;4.38;;
65469;SDS011;52067;50.710;14.492;2024-01-07T07:55:01;5.10;;;3.20;;
65469;SDS011;52067;50.710;14.492;2024-01-07T07:57:27;6.03;;;3.88;;
65469;SDS011;52067;50.710;14.492;2024-01-07T07:59:53;6.18;;;3.65;;
65469;SDS011;52067;50.710;14.492;2024-01-07T08:02:19;10.15;;;5.35;;
65469;SDS011;52067;50.710;14.492;2024-01-07T08:04:46;8.65;;;4.82;;
65469;SDS011;52067;50.710;14.492;2024-01-07T08:07:12;9.48;;;5.18;;
65469;SDS011;52067;50.710;14.492;2024-01-07T08:09:37;11.52;;;4.97;;
65469;SDS011;52067;50.710;14.492;2024-01-07T08:12:06;7.68;;;4.55;;
65469;SDS011;52067;50.710;14.492;2024-01-07T08:14:32;7.38;;;3.92;;
65469;SDS011;52067;50.710;14.492;2024-01-07T08:16:58;11.35;;;4.90;;
65469;SDS011;52067;50.710;14.492;2024-01-07T08:19:24;12.60;;;5.22;;
65469;SDS011;52067;50.710;14.492;2024-01-07T08:21:49;24.30;;;6.85;;
65469;SDS011;52067;50.710;14.492;2024-01-07T08:24:15;10.98;;;5.95;;
65469;SDS011;52067;50.710;14.492;2024-01-07T08:26:40;7.75;;;4.40;;
65469;SDS011;52067;50.710;14.492;2024-01-07T08:29:06;7.25;;;3.67;;
65469;SDS011;52067;50.710;14.492;2024-01-07T08:31:31;5.13;;;3.05;;
65469;SDS011;52067;50.710;14.492;2024-01-07T08:33:57;9.38;;;5.15;;
65469;SDS011;52067;50.710;14.492;2024-01-07T08:36:23;9.63;;;4.68;;
65469;SDS011;52067;50.710;14.492;2024-01-07T08:38:52;5.55;;;3.05;;
65469;SDS011;52067;50.710;14.492;2024-01-07T08:41:17;18.20;;;3.75;;
65469;SDS011;52067;50.710;14.492;2024-01-07T08:43:43;6.50;;;3.58;;
65469;SDS011;52067;50.710;14.492;2024-01-07T08:46:10;5.60;;;3.75;;
65469;SDS011;52067;50.710;14.492;2024-01-07T08:48:36;3.90;;;2.50;;
65469;SDS011;52067;50.710;14.492;2024-01-07T08:51:01;7.13;;;3.78;;
65469;SDS011;52067;50.710;14.492;2024-01-07T08:53:28;13.18;;;6.07;;
65469;SDS011;52067;50.710;14.492;2024-01-07T08:55:53;14.32;;;6.15;;
65469;SDS011;52067;50.710;14.492;2024-01-07T08:58:19;9.00;;;4.57;;
65469;SDS011;52067;50.710;14.492;2024-01-07T09:00:44;9.35;;;5.03;;
65469;SDS011;52067;50.710;14.492;2024-01-07T09:03:10;7.47;;;4.00;;
65469;SDS011;52067;50.710;14.492;2024-01-07T09:05:36;5.78;;;3.78;;
65469;SDS011;52067;50.710;14.492;2024-01-07T09:08:01;8.45;;;3.55;;
65469;SDS011;52067;50.710;14.492;2024-01-07T09:10:27;6.05;;;3.30;;
65469;SDS011;52067;50.710;14.492;2024-01-07T09:12:52;8.73;;;4.72;;
65469;SDS011;52067;50.710;14.492;2024-01-07T09:15:18;10.38;;;5.78;;
65469;SDS011;52067;50.710;14.492;2024-01-07T09:17:45;8.98;;;4.13;;
65469;SDS011;52067;50.710;14.492;2024-01-07T09:20:11;4.20;;;2.83;;
65469;SDS011;52067;50.710;14.492;2024-01-07T09:22:37;6.15;;;4.00;;
65469;SDS011;52067;50.710;14.492;2024-01-07T09:25:02;8.60;;;4.35;;
65469;SDS011;52067;50.710;14.492;2024-01-07T09:27:29;8.32;;;4.57;;
65469;SDS011;52067;50.710;14.492;2024-01-07T09:29:55;5.15;;;3.08;;
65469;SDS011;52067;50.710;14.492;2024-01-07T09:32:20;9.13;;;4.35;;
65469;SDS011;52067;50.710;14.492;2024-01-07T09:34:45;9.48;;;5.03;;
65469;SDS011;52067;50.710;14.492;2024-01-07T09:37:11;7.45;;;4.25;;
65469;SDS011;52067;50.710;14.492;2024-01-07T09:39:40;9.00;;;4.10;;
65469;SDS011;52067;50.710;14.492;2024-01-07T09:42:15;7.78;;;4.10;;
65469;SDS011;52067;50.710;14.492;2024-01-07T09:44:44;7.75;;;4.40;;
65469;SDS011;52067;50.710;14.492;2024-01-07T09:47:11;12.32;;;5.82;;
65469;SDS011;52067;50.710;14.492;2024-01-07T09:49:40;6.57;;;3.78;;
65469;SDS011;52067;50.710;14.492;2024-01-07T09:52:06;9.95;;;5.43;;
65469;SDS011;52067;50.710;14.492;2024-01-07T09:54:35;6.07;;;3.25;;
65469;SDS011;52067;50.710;14.492;2024-01-07T09:57:03;11.55;;;6.00;;
65469;SDS011;52067;50.710;14.492;2024-01-07T09:59:31;11.90;;;5.75;;
65469;SDS011;52067;50.710;14.492;2024-01-07T10:01:57;13.57;;;5.97;;
65469;SDS011;52067;50.710;14.492;2024-01-07T10:04:23;10.02;;;4.45;;
65469;SDS011;52067;50.710;14.492;2024-01-07T10:06:50;6.90;;;3.95;;
65469;SDS011;52067;50.710;14.492;2024-01-07T10:09:16;5.60;;;2.70;;
65469;SDS011;52067;50.710;14.492;2024-01-07T10:11:42;8.90;;;4.65;;
65469;SDS011;52067;50.710;14.492;2024-01-07T10:14:08;10.13;;;4.93;;
65469;SDS011;52067;50.710;14.492;2024-01-07T10:16:34;6.82;;;3.97;;
65469;SDS011;52067;50.710;14.492;2024-01-07T10:18:59;8.73;;;4.22;;
65469;SDS011;52067;50.710;14.492;2024-01-07T10:21:25;6.88;;;3.28;;
65469;SDS011;52067;50.710;14.492;2024-01-07T10:23:50;8.88;;;4.35;;
65469;SDS011;52067;50.710;14.492;2024-01-07T10:26:16;8.30;;;4.75;;
65469;SDS011;52067;50.710;14.492;2024-01-07T10:28:41;10.23;;;5.53;;
65469;SDS011;52067;50.710;14.492;2024-01-07T10:31:08;5.72;;;3.13;;
65469;SDS011;52067;50.710;14.492;2024-01-07T10:33:34;11.00;;;5.40;;
65469;SDS011;52067;50.710;14.492;2024-01-07T10:36:02;8.75;;;4.57;;
65469;SDS011;52067;50.710;14.492;2024-01-07T10:38:31;6.72;;;3.65;;
65469;SDS011;52067;50.710;14.492;2024-01-07T10:40:58;10.68;;;5.10;;
65469;SDS011;52067;50.710;14.492;2024-01-07T10:43:25;5.70;;;3.58;;
65469;SDS011;52067;50.710;14.492;2024-01-07T10:45:53;9.15;;;5.28;;
65469;SDS011;52067;50.710;14.492;2024-01-07T10:48:20;8.27;;;3.72;;
65469;SDS011;52067;50.710;14.492;2024-01-07T10:50:47;8.10;;;4.13;;
65469;SDS011;52067;50.710;14.492;2024-01-07T10:53:17;8.13;;;3.80;;
65469;SDS011;52067;50.710;14.492;2024-01-07T10:55:47;6.75;;;3.67;;
65469;SDS011;52067;50.710;14.492;2024-01-07T10:58:19;7.32;;;4.15;;
65469;SDS011;52067;50.710;14.492;2024-01-07T11:00:46;7.65;;;4.47;;
65469;SDS011;52067;50.710;14.492;2024-01-07T11:03:21;9.80;;;5.63;;
65469;SDS011;52067;50.710;14.492;2024-01-07T11:06:13;10.27;;;5.47;;
65469;SDS011;52067;50.710;14.492;2024-01-07T11:08:52;11.48;;;4.97;;
65469;SDS011;52067;50.710;14.492;2024-01-07T11:11:25;7.18;;;3.85;;
65469;SDS011;52067;50.710;14.492;2024-01-07T11:13:56;9.77;;;4.25;;
65469;SDS011;52067;50.710;14.492;2024-01-07T11:16:40;6.72;;;3.53;;
65469;SDS011;52067;50.710;14.492;2024-01-07T11:19:09;5.15;;;3.50;;
65469;SDS011;52067;50.710;14.492;2024-01-07T11:21:38;7.78;;;4.60;;
65469;SDS011;52067;50.710;14.492;2024-01-07T11:24:03;9.63;;;3.53;;
65469;SDS011;52067;50.710;14.492;2024-01-07T11:26:29;5.03;;;3.45;;
65469;SDS011;52067;50.710;14.492;2024-01-07T11:28:55;5.25;;;2.95;;
65469;SDS011;52067;50.710;14.492;2024-01-07T11:31:55;6.70;;;3.65;;
65469;SDS011;52067;50.710;14.492;2024-01-07T11:37:13;5.82;;;3.25;;
65469;SDS011;52067;50.710;14.492;2024-01-07T11:39:42;4.38;;;2.45;;
65469;SDS011;52067;50.710;14.492;2024-01-07T11:42:09;5.50;;;2.85;;
65469;SDS011;52067;50.710;14.492;2024-01-07T11:44:34;7.55;;;3.03;;
65469;SDS011;52067;50.710;14.492;2024-01-07T11:47:02;4.05;;;2.17;;
65469;SDS011;52067;50.710;14.492;2024-01-07T11:49:28;5.13;;;3.03;;
65469;SDS011;52067;50.710;14.492;2024-01-07T11:51:53;3.85;;;2.53;;
65469;SDS011;52067;50.710;14.492;2024-01-07T11:54:19;5.97;;;2.10;;
65469;SDS011;52067;50.710;14.492;2024-01-07T11:56:44;5.38;;;3.33;;
65469;SDS011;52067;50.710;14.492;2024-01-07T11:59:10;4.05;;;2.50;;
65469;SDS011;52067;50.710;14.492;2024-01-07T12:01:35;5.13;;;2.50;;
65469;SDS011;52067;50.710;14.492;2024-01-07T12:04:00;4.00;;;2.30;;
65469;SDS011;52067;50.710;14.492;2024-01-07T12:06:26;4.97;;;3.08;;
65469;SDS011;52067;50.710;14.492;2024-01-07T12:08:51;4.43;;;2.50;;
65469;SDS011;52067;50.710;14.492;2024-01-07T12:11:17;6.07;;;3.25;;
65469;SDS011;52067;50.710;14.492;2024-01-07T12:13:43;9.18;;;4.68;;
65469;SDS011;52067;50.710;14.492;2024-01-07T12:16:09;5.85;;;3.00;;
65469;SDS011;52067;50.710;14.492;2024-01-07T12:18:39;20.77;;;7.65;;
65469;SDS011;52067;50.710;14.492;2024-01-07T12:21:04;8.07;;;3.05;;
65469;SDS011;52067;50.710;14.492;2024-01-07T12:23:34;6.22;;;3.00;;
65469;SDS011;52067;50.710;14.492;2024-01-07T12:26:10;4.15;;;2.28;;
65469;SDS011;52067;50.710;14.492;2024-01-07T12:33:28;6.38;;;3.00;;
65469;SDS011;52067;50.710;14.492;2024-01-07T12:35:59;4.57;;;2.88;;
65469;SDS011;52067;50.710;14.492;2024-01-07T12:38:28;4.93;;;2.63;;
65469;SDS011;52067;50.710;14.492;2024-01-07T12:40:54;4.50;;;2.78;;
65469;SDS011;52067;50.710;14.492;2024-01-07T12:43:20;2.95;;;1.92;;
65469;SDS011;52067;50.710;14.492;2024-01-07T12:45:49;5.75;;;2.47;;
65469;SDS011;52067;50.710;14.492;2024-01-07T12:48:15;4.75;;;2.45;;
65469;SDS011;52067;50.710;14.492;2024-01-07T12:50:40;5.07;;;2.90;;
65469;SDS011;52067;50.710;14.492;2024-01-07T12:53:06;3.15;;;1.73;;
65469;SDS011;52067;50.710;14.492;2024-01-07T12:55:31;7.43;;;3.25;;
65469;SDS011;52067;50.710;14.492;2024-01-07T12:57:57;1.75;;;1.23;;
65469;SDS011;52067;50.710;14.492;2024-01-07T13:00:23;5.03;;;2.70;;
65469;SDS011;52067;50.710;14.492;2024-01-07T13:02:53;2.80;;;2.08;;
65469;SDS011;52067;50.710;14.492;2024-01-07T13:05:19;3.97;;;2.15;;
65469;SDS011;52067;50.710;14.492;2024-01-07T13:07:45;4.05;;;2.35;;
65469;SDS011;52067;50.710;14.492;2024-01-07T13:10:11;6.10;;;2.95;;
65469;SDS011;52067;50.710;14.492;2024-01-07T13:12:38;2.55;;;1.77;;
65469;SDS011;52067;50.710;14.492;2024-01-07T13:15:03;3.63;;;2.00;;
65469;SDS011;52067;50.710;14.492;2024-01-07T13:17:32;7.45;;;3.28;;
65469;SDS011;52067;50.710;14.492;2024-01-07T13:19:58;6.78;;;2.42;;
65469;SDS011;52067;50.710;14.492;2024-01-07T13:22:31;3.83;;;2.60;;
65469;SDS011;52067;50.710;14.492;2024-01-07T13:24:57;5.53;;;3.00;;
65469;SDS011;52067;50.710;14.492;2024-01-07T13:27:23;1.60;;;1.30;;
65469;SDS011;52067;50.710;14.492;2024-01-07T13:29:49;5.38;;;2.53;;
65469;SDS011;52067;50.710;14.492;2024-01-07T13:32:15;3.80;;;2.30;;
65469;SDS011;52067;50.710;14.492;2024-01-07T13:34:42;2.45;;;1.80;;
65469;SDS011;52067;50.710;14.492;2024-01-07T13:37:08;2.60;;;1.70;;
65469;SDS011;52067;50.710;14.492;2024-01-07T13:39:33;3.33;;;2.10;;
65469;SDS011;52067;50.710;14.492;2024-01-07T13:42:03;8.35;;;3.38;;
65469;SDS011;52067;50.710;14.492;2024-01-07T13:44:29;4.70;;;2.70;;
65469;SDS011;52067;50.710;14.492;2024-01-07T13:46:55;6.25;;;3.30;;
65469;SDS011;52067;50.710;14.492;2024-01-07T13:49:21;4.25;;;2.85;;
65469;SDS011;52067;50.710;14.492;2024-01-07T13:51:46;5.10;;;2.55;;
65469;SDS011;52067;50.710;14.492;2024-01-07T13:54:12;7.00;;;3.13;;
65469;SDS011;52067;50.710;14.492;2024-01-07T13:56:40;1.92;;;1.50;;
65469;SDS011;52067;50.710;14.492;2024-01-07T13:59:08;5.80;;;2.85;;
65469;SDS011;52067;50.710;14.492;2024-01-07T14:01:39;4.10;;;2.20;;
65469;SDS011;52067;50.710;14.492;2024-01-07T14:04:07;7.50;;;1.80;;
65469;SDS011;52067;50.710;14.492;2024-01-07T14:06:32;5.22;;;2.58;;
65469;SDS011;52067;50.710;14.492;2024-01-07T14:08:58;5.88;;;3.00;;
65469;SDS011;52067;50.710;14.492;2024-01-07T14:11:24;3.38;;;2.03;;
65469;SDS011;52067;50.710;14.492;2024-01-07T14:13:49;11.35;;;4.53;;
65469;SDS011;52067;50.710;14.492;2024-01-07T14:16:15;6.15;;;2.97;;
65469;SDS011;52067;50.710;14.492;2024-01-07T14:18:40;3.80;;;1.90;;
65469;SDS011;52067;50.710;14.492;2024-01-07T14:21:06;4.20;;;2.35;;
65469;SDS011;52067;50.710;14.492;2024-01-07T14:23:32;1.20;;;1.10;;
65469;SDS011;52067;50.710;14.492;2024-01-07T14:25:58;3.95;;;2.05;;
65469;SDS011;52067;50.710;14.492;2024-01-07T14:28:24;3.95;;;2.47;;
65469;SDS011;52067;50.710;14.492;2024-01-07T14:30:50;4.00;;;2.40;;